sensor_id;sensor_type;location;lat;lon;timestamp;P1;durP1;ratioP1;P2;durP2;ratioP2
77466;SDS011;66564;42.482;25.548;2023-03-04T00:00:20;27.52;;;12.40;;
77466;SDS011;66564;42.482;25.548;2023-03-04T00:02:46;22.17;;;12.30;;
77466;SDS011;66564;42.482;25.548;2023-03-04T00:05:12;29.15;;;13.07;;
77466;SDS011;66564;42.482;25.548;2023-03-04T00:07:37;27.65;;;12.90;;
77466;SDS011;66564;42.482;25.548;2023-03-04T00:10:03;26.15;;;11.15;;
77466;SDS011;66564;42.482;25.548;2023-03-04T00:12:29;33.97;;;13.52;;
77466;SDS011;66564;42.482;25.548;2023-03-04T00:14:55;30.30;;;12.70;;
77466;SDS011;66564;42.482;25.548;2023-03-04T00:17:21;28.27;;;11.90;;
77466;SDS011;66564;42.482;25.548;2023-03-04T00:19:46;26.00;;;13.38;;
77466;SDS011;66564;42.482;25.548;2023-03-04T00:23:00;23.20;;;10.88;;
77466;SDS011;66564;42.482;25.548;2023-03-04T00:25:25;24.90;;;11.88;;
77466;SDS011;66564;42.482;25.548;2023-03-04T00:27:51;21.38;;;11.35;;
77466;SDS011;66564;42.482;25.548;2023-03-04T00:30:16;22.65;;;10.93;;
77466;SDS011;66564;42.482;25.548;2023-03-04T00:32:42;20.90;;;10.13;;
77466;SDS011;66564;42.482;25.548;2023-03-04T00:35:07;19.38;;;9.75;;
77466;SDS011;66564;42.482;25.548;2023-03-04T00:37:33;19.48;;;9.70;;
77466;SDS011;66564;42.482;25.548;2023-03-04T00:39:59;19.80;;;9.27;;
77466;SDS011;66564;42.482;25.548;2023-03-04T00:42:24;22.58;;;11.18;;
77466;SDS011;66564;42.482;25.548;2023-03-04T00:44:50;23.30;;;11.77;;
77466;SDS011;66564;42.482;25.548;2023-03-04T00:47:16;24.80;;;11.07;;
77466;SDS011;66564;42.482;25.548;2023-03-04T00:49:41;26.98;;;12.43;;
77466;SDS011;66564;42.482;25.548;2023-03-04T00:52:07;26.00;;;12.88;;
77466;SDS011;66564;42.482;25.548;2023-03-04T00:54:32;28.65;;;13.05;;
77466;SDS011;66564;42.482;25.548;2023-03-04T00:56:58;34.35;;;14.93;;
77466;SDS011;66564;42.482;25.548;2023-03-04T00:59:23;23.42;;;12.75;;
77466;SDS011;66564;42.482;25.548;2023-03-04T01:01:49;28.88;;;13.25;;
77466;SDS011;66564;42.482;25.548;2023-03-04T01:04:14;31.58;;;14.25;;
77466;SDS011;66564;42.482;25.548;2023-03-04T01:06:40;34.40;;;16.55;;
77466;SDS011;66564;42.482;25.548;2023-03-04T01:09:05;30.73;;;14.65;;
77466;SDS011;66564;42.482;25.548;2023-03-04T01:11:32;25.70;;;13.05;;
77466;SDS011;66564;42.482;25.548;2023-03-04T01:13:58;28.63;;;13.20;;
77466;SDS011;66564;42.482;25.548;2023-03-04T01:16:23;31.65;;;14.85;;
77466;SDS011;66564;42.482;25.548;2023-03-04T01:18:49;36.95;;;15.60;;
77466;SDS011;66564;42.482;25.548;2023-03-04T01:21:14;33.45;;;15.73;;
77466;SDS011;66564;42.482;25.548;2023-03-04T01:23:40;36.92;;;14.55;;
77466;SDS011;66564;42.482;25.548;2023-03-04T01:26:05;31.70;;;14.80;;
77466;SDS011;66564;42.482;25.548;2023-03-04T01:28:31;30.95;;;15.77;;
77466;SDS011;66564;42.482;25.548;2023-03-04T01:31:00;29.70;;;15.25;;
77466;SDS011;66564;42.482;25.548;2023-03-04T01:33:26;31.15;;;15.32;;
77466;SDS011;66564;42.482;25.548;2023-03-04T01:35:51;36.97;;;15.93;;
77466;SDS011;66564;42.482;25.548;2023-03-04T01:38:17;37.40;;;16.20;;
77466;SDS011;66564;42.482;25.548;2023-03-04T01:40:42;34.83;;;15.77;;
77466;SDS011;66564;42.482;25.548;2023-03-04T01:43:10;38.72;;;17.40;;
77466;SDS011;66564;42.482;25.548;2023-03-04T01:45:44;38.13;;;14.38;;
77466;SDS011;66564;42.482;25.548;2023-03-04T01:48:10;33.58;;;15.70;;
77466;SDS011;66564;42.482;25.548;2023-03-04T01:50:39;30.73;;;14.40;;
77466;SDS011;66564;42.482;25.548;2023-03-04T01:53:05;32.60;;;15.23;;
77466;SDS011;66564;42.482;25.548;2023-03-04T01:55:30;34.60;;;16.17;;
77466;SDS011;66564;42.482;25.548;2023-03-04T01:57:56;31.30;;;15.45;;
77466;SDS011;66564;42.482;25.548;2023-03-04T02:02:59;30.90;;;15.63;;
77466;SDS011;66564;42.482;25.548;2023-03-04T02:05:28;34.03;;;15.90;;
77466;SDS011;66564;42.482;25.548;2023-03-04T02:07:54;30.42;;;16.40;;
77466;SDS011;66564;42.482;25.548;2023-03-04T02:10:21;32.15;;;16.35;;
77466;SDS011;66564;42.482;25.548;2023-03-04T02:12:47;30.83;;;15.20;;
77466;SDS011;66564;42.482;25.548;2023-03-04T02:15:13;35.55;;;15.30;;
77466;SDS011;66564;42.482;25.548;2023-03-04T02:17:39;35.72;;;15.20;;
77466;SDS011;66564;42.482;25.548;2023-03-04T02:20:18;33.25;;;17.95;;
77466;SDS011;66564;42.482;25.548;2023-03-04T02:23:29;34.97;;;14.88;;
77466;SDS011;66564;42.482;25.548;2023-03-04T02:25:46;30.52;;;15.38;;
77466;SDS011;66564;42.482;25.548;2023-03-04T02:28:31;32.92;;;15.82;;
77466;SDS011;66564;42.482;25.548;2023-03-04T02:30:57;33.83;;;16.17;;
77466;SDS011;66564;42.482;25.548;2023-03-04T02:33:22;32.40;;;15.98;;
77466;SDS011;66564;42.482;25.548;2023-03-04T02:36:48;36.92;;;14.95;;
77466;SDS011;66564;42.482;25.548;2023-03-04T02:40:15;33.67;;;14.73;;
77466;SDS011;66564;42.482;25.548;2023-03-04T02:43:40;39.05;;;16.17;;
77466;SDS011;66564;42.482;25.548;2023-03-04T02:47:08;35.13;;;16.85;;
77466;SDS011;66564;42.482;25.548;2023-03-04T02:50:34;36.53;;;14.27;;
77466;SDS011;66564;42.482;25.548;2023-03-04T02:54:00;35.63;;;15.18;;
77466;SDS011;66564;42.482;25.548;2023-03-04T02:57:27;35.25;;;15.20;;
77466;SDS011;66564;42.482;25.548;2023-03-04T03:00:52;38.33;;;16.63;;
77466;SDS011;66564;42.482;25.548;2023-03-04T03:04:17;45.33;;;17.52;;
77466;SDS011;66564;42.482;25.548;2023-03-04T03:07:42;42.10;;;17.15;;
77466;SDS011;66564;42.482;25.548;2023-03-04T03:11:07;40.17;;;18.05;;
77466;SDS011;66564;42.482;25.548;2023-03-04T03:13:33;38.33;;;17.77;;
77466;SDS011;66564;42.482;25.548;2023-03-04T03:15:58;39.47;;;17.30;;
77466;SDS011;66564;42.482;25.548;2023-03-04T03:18:27;33.08;;;16.67;;
77466;SDS011;66564;42.482;25.548;2023-03-04T03:20:52;40.75;;;17.55;;
77466;SDS011;66564;42.482;25.548;2023-03-04T03:23:21;39.85;;;16.17;;
77466;SDS011;66564;42.482;25.548;2023-03-04T03:25:46;35.53;;;17.02;;
77466;SDS011;66564;42.482;25.548;2023-03-04T03:28:12;33.97;;;15.75;;
77466;SDS011;66564;42.482;25.548;2023-03-04T03:30:37;28.55;;;14.48;;
77466;SDS011;66564;42.482;25.548;2023-03-04T03:33:03;37.67;;;16.15;;
77466;SDS011;66564;42.482;25.548;2023-03-04T03:35:28;33.58;;;14.55;;
77466;SDS011;66564;42.482;25.548;2023-03-04T03:37:54;31.02;;;15.65;;
77466;SDS011;66564;42.482;25.548;2023-03-04T03:40:19;31.45;;;15.23;;
77466;SDS011;66564;42.482;25.548;2023-03-04T03:42:47;37.47;;;15.38;;
77466;SDS011;66564;42.482;25.548;2023-03-04T03:45:12;30.50;;;15.57;;
77466;SDS011;66564;42.482;25.548;2023-03-04T03:48:37;27.30;;;13.25;;
77466;SDS011;66564;42.482;25.548;2023-03-04T03:52:03;33.90;;;15.25;;
77466;SDS011;66564;42.482;25.548;2023-03-04T03:55:28;29.58;;;13.82;;
77466;SDS011;66564;42.482;25.548;2023-03-04T03:58:54;29.88;;;13.90;;
77466;SDS011;66564;42.482;25.548;2023-03-04T04:02:19;27.63;;;13.07;;
77466;SDS011;66564;42.482;25.548;2023-03-04T04:04:44;33.50;;;14.65;;
77466;SDS011;66564;42.482;25.548;2023-03-04T04:08:11;31.27;;;13.95;;
77466;SDS011;66564;42.482;25.548;2023-03-04T04:11:35;26.70;;;12.23;;
77466;SDS011;66564;42.482;25.548;2023-03-04T04:15:00;32.22;;;14.43;;
77466;SDS011;66564;42.482;25.548;2023-03-04T04:18:25;28.67;;;14.50;;
77466;SDS011;66564;42.482;25.548;2023-03-04T04:21:50;30.92;;;13.93;;
77466;SDS011;66564;42.482;25.548;2023-03-04T04:24:18;27.45;;;14.23;;
77466;SDS011;66564;42.482;25.548;2023-03-04T04:26:44;30.33;;;13.93;;
77466;SDS011;66564;42.482;25.548;2023-03-04T04:29:11;28.45;;;13.93;;
77466;SDS011;66564;42.482;25.548;2023-03-04T04:31:38;26.15;;;12.65;;
77466;SDS011;66564;42.482;25.548;2023-03-04T04:34:03;31.58;;;13.20;;
77466;SDS011;66564;42.482;25.548;2023-03-04T04:36:28;24.15;;;12.13;;
77466;SDS011;66564;42.482;25.548;2023-03-04T04:38:54;26.98;;;11.45;;
77466;SDS011;66564;42.482;25.548;2023-03-04T04:41:24;23.42;;;12.05;;
77466;SDS011;66564;42.482;25.548;2023-03-04T04:43:52;24.85;;;11.45;;
77466;SDS011;66564;42.482;25.548;2023-03-04T04:47:17;20.48;;;10.15;;
77466;SDS011;66564;42.482;25.548;2023-03-04T04:50:42;25.33;;;9.90;;
77466;SDS011;66564;42.482;25.548;2023-03-04T04:54:09;21.17;;;10.55;;
77466;SDS011;66564;42.482;25.548;2023-03-04T04:57:33;21.23;;;10.25;;
77466;SDS011;66564;42.482;25.548;2023-03-04T05:00:58;21.33;;;10.05;;
77466;SDS011;66564;42.482;25.548;2023-03-04T05:04:24;20.90;;;11.35;;
77466;SDS011;66564;42.482;25.548;2023-03-04T05:07:49;20.33;;;9.45;;
77466;SDS011;66564;42.482;25.548;2023-03-04T05:11:17;22.80;;;9.80;;
77466;SDS011;66564;42.482;25.548;2023-03-04T05:14:41;20.75;;;10.45;;
77466;SDS011;66564;42.482;25.548;2023-03-04T05:18:06;21.25;;;9.90;;
77466;SDS011;66564;42.482;25.548;2023-03-04T05:21:32;21.30;;;9.20;;
77466;SDS011;66564;42.482;25.548;2023-03-04T05:24:57;16.27;;;8.63;;
77466;SDS011;66564;42.482;25.548;2023-03-04T05:27:22;19.63;;;9.82;;
77466;SDS011;66564;42.482;25.548;2023-03-04T05:29:48;30.05;;;14.30;;
77466;SDS011;66564;42.482;25.548;2023-03-04T05:32:13;39.30;;;16.55;;
77466;SDS011;66564;42.482;25.548;2023-03-04T05:34:39;33.97;;;17.52;;
77466;SDS011;66564;42.482;25.548;2023-03-04T05:37:04;39.30;;;18.63;;
77466;SDS011;66564;42.482;25.548;2023-03-04T05:39:30;41.58;;;19.67;;
77466;SDS011;66564;42.482;25.548;2023-03-04T05:41:55;38.85;;;18.23;;
77466;SDS011;66564;42.482;25.548;2023-03-04T05:44:21;32.67;;;16.63;;
77466;SDS011;66564;42.482;25.548;2023-03-04T05:46:46;34.90;;;17.35;;
77466;SDS011;66564;42.482;25.548;2023-03-04T05:49:12;30.02;;;16.60;;
77466;SDS011;66564;42.482;25.548;2023-03-04T05:51:37;36.13;;;17.38;;
77466;SDS011;66564;42.482;25.548;2023-03-04T05:54:03;29.83;;;15.48;;
77466;SDS011;66564;42.482;25.548;2023-03-04T05:56:29;31.02;;;13.77;;
77466;SDS011;66564;42.482;25.548;2023-03-04T05:58:56;27.15;;;13.35;;
77466;SDS011;66564;42.482;25.548;2023-03-04T06:01:23;27.52;;;13.32;;
77466;SDS011;66564;42.482;25.548;2023-03-04T06:03:48;23.95;;;13.48;;
77466;SDS011;66564;42.482;25.548;2023-03-04T06:06:14;26.10;;;11.35;;
77466;SDS011;66564;42.482;25.548;2023-03-04T06:08:40;26.13;;;13.38;;
77466;SDS011;66564;42.482;25.548;2023-03-04T06:11:06;29.17;;;12.30;;
77466;SDS011;66564;42.482;25.548;2023-03-04T06:13:32;27.00;;;12.27;;
77466;SDS011;66564;42.482;25.548;2023-03-04T06:15:58;26.23;;;12.38;;
77466;SDS011;66564;42.482;25.548;2023-03-04T06:19:23;22.67;;;11.45;;
77466;SDS011;66564;42.482;25.548;2023-03-04T06:21:49;24.00;;;13.32;;
77466;SDS011;66564;42.482;25.548;2023-03-04T06:24:15;27.73;;;13.35;;
77466;SDS011;66564;42.482;25.548;2023-03-04T06:26:40;30.17;;;13.98;;
77466;SDS011;66564;42.482;25.548;2023-03-04T06:29:06;28.60;;;13.32;;
77466;SDS011;66564;42.482;25.548;2023-03-04T06:31:31;28.92;;;12.73;;
77466;SDS011;66564;42.482;25.548;2023-03-04T06:33:57;25.35;;;13.05;;
77466;SDS011;66564;42.482;25.548;2023-03-04T06:36:24;26.90;;;12.77;;
77466;SDS011;66564;42.482;25.548;2023-03-04T06:38:49;28.52;;;12.68;;
77466;SDS011;66564;42.482;25.548;2023-03-04T06:41:15;31.48;;;14.77;;
77466;SDS011;66564;42.482;25.548;2023-03-04T06:43:41;34.97;;;17.75;;
77466;SDS011;66564;42.482;25.548;2023-03-04T06:46:06;38.92;;;15.63;;
77466;SDS011;66564;42.482;25.548;2023-03-04T06:48:32;32.85;;;15.30;;
77466;SDS011;66564;42.482;25.548;2023-03-04T06:51:03;42.55;;;19.17;;
77466;SDS011;66564;42.482;25.548;2023-03-04T06:53:32;44.10;;;18.23;;
77466;SDS011;66564;42.482;25.548;2023-03-04T06:55:57;33.55;;;17.38;;
77466;SDS011;66564;42.482;25.548;2023-03-04T06:58:23;24.40;;;12.23;;
77466;SDS011;66564;42.482;25.548;2023-03-04T07:00:50;27.77;;;15.13;;
77466;SDS011;66564;42.482;25.548;2023-03-04T07:03:15;28.58;;;13.82;;
77466;SDS011;66564;42.482;25.548;2023-03-04T07:05:42;26.77;;;13.00;;
77466;SDS011;66564;42.482;25.548;2023-03-04T07:08:08;26.58;;;14.02;;
77466;SDS011;66564;42.482;25.548;2023-03-04T07:10:33;34.67;;;15.02;;
77466;SDS011;66564;42.482;25.548;2023-03-04T07:12:59;24.77;;;13.00;;
77466;SDS011;66564;42.482;25.548;2023-03-04T07:15:25;28.67;;;14.30;;
77466;SDS011;66564;42.482;25.548;2023-03-04T07:17:50;38.08;;;17.45;;
77466;SDS011;66564;42.482;25.548;2023-03-04T07:20:16;27.05;;;13.77;;
77466;SDS011;66564;42.482;25.548;2023-03-04T07:22:42;28.83;;;12.63;;
77466;SDS011;66564;42.482;25.548;2023-03-04T07:25:07;27.00;;;13.73;;
77466;SDS011;66564;42.482;25.548;2023-03-04T07:27:33;25.00;;;13.65;;
77466;SDS011;66564;42.482;25.548;2023-03-04T07:29:59;27.92;;;13.07;;
77466;SDS011;66564;42.482;25.548;2023-03-04T07:32:24;26.40;;;13.52;;
77466;SDS011;66564;42.482;25.548;2023-03-04T07:34:50;25.83;;;13.23;;
77466;SDS011;66564;42.482;25.548;2023-03-04T07:37:16;26.88;;;13.48;;
77466;SDS011;66564;42.482;25.548;2023-03-04T07:39:42;21.90;;;12.88;;
77466;SDS011;66564;42.482;25.548;2023-03-04T07:42:07;28.15;;;14.60;;
77466;SDS011;66564;42.482;25.548;2023-03-04T07:44:33;29.90;;;15.40;;
77466;SDS011;66564;42.482;25.548;2023-03-04T07:46:58;27.20;;;13.80;;
77466;SDS011;66564;42.482;25.548;2023-03-04T07:49:24;20.27;;;11.57;;
77466;SDS011;66564;42.482;25.548;2023-03-04T07:51:49;21.75;;;11.63;;
77466;SDS011;66564;42.482;25.548;2023-03-04T07:54:15;20.85;;;10.57;;
77466;SDS011;66564;42.482;25.548;2023-03-04T07:56:40;23.05;;;11.75;;
77466;SDS011;66564;42.482;25.548;2023-03-04T07:59:06;23.23;;;11.55;;
77466;SDS011;66564;42.482;25.548;2023-03-04T08:01:32;20.95;;;11.13;;
77466;SDS011;66564;42.482;25.548;2023-03-04T08:04:00;24.00;;;13.02;;
77466;SDS011;66564;42.482;25.548;2023-03-04T08:07:25;23.63;;;11.82;;
77466;SDS011;66564;42.482;25.548;2023-03-04T08:09:51;18.95;;;10.60;;
77466;SDS011;66564;42.482;25.548;2023-03-04T08:12:16;21.70;;;11.85;;
77466;SDS011;66564;42.482;25.548;2023-03-04T08:15:02;25.70;;;13.45;;
77466;SDS011;66564;42.482;25.548;2023-03-04T08:17:27;23.95;;;12.90;;
77466;SDS011;66564;42.482;25.548;2023-03-04T08:19:54;19.02;;;11.27;;
77466;SDS011;66564;42.482;25.548;2023-03-04T08:22:20;21.80;;;11.65;;
77466;SDS011;66564;42.482;25.548;2023-03-04T08:24:45;20.17;;;11.23;;
77466;SDS011;66564;42.482;25.548;2023-03-04T08:27:11;22.25;;;11.73;;
77466;SDS011;66564;42.482;25.548;2023-03-04T08:29:36;24.60;;;12.88;;
77466;SDS011;66564;42.482;25.548;2023-03-04T08:32:02;18.15;;;11.55;;
77466;SDS011;66564;42.482;25.548;2023-03-04T08:34:27;25.98;;;12.48;;
77466;SDS011;66564;42.482;25.548;2023-03-04T08:36:53;21.67;;;9.80;;
77466;SDS011;66564;42.482;25.548;2023-03-04T08:39:19;24.50;;;11.07;;
77466;SDS011;66564;42.482;25.548;2023-03-04T08:41:45;22.30;;;10.18;;
77466;SDS011;66564;42.482;25.548;2023-03-04T08:44:12;18.35;;;10.60;;
77466;SDS011;66564;42.482;25.548;2023-03-04T08:46:38;18.38;;;10.90;;
77466;SDS011;66564;42.482;25.548;2023-03-04T08:49:05;20.65;;;11.15;;
77466;SDS011;66564;42.482;25.548;2023-03-04T08:51:31;21.65;;;10.85;;
77466;SDS011;66564;42.482;25.548;2023-03-04T08:53:59;22.50;;;12.05;;
77466;SDS011;66564;42.482;25.548;2023-03-04T08:56:25;23.73;;;12.07;;
77466;SDS011;66564;42.482;25.548;2023-03-04T08:58:51;20.92;;;9.98;;
77466;SDS011;66564;42.482;25.548;2023-03-04T09:02:16;24.42;;;11.07;;
77466;SDS011;66564;42.482;25.548;2023-03-04T09:05:02;17.73;;;10.40;;
77466;SDS011;66564;42.482;25.548;2023-03-04T09:07:28;26.60;;;12.20;;
77466;SDS011;66564;42.482;25.548;2023-03-04T09:09:56;21.65;;;11.23;;
77466;SDS011;66564;42.482;25.548;2023-03-04T09:13:22;20.48;;;10.93;;
77466;SDS011;66564;42.482;25.548;2023-03-04T09:15:49;23.38;;;11.73;;
77466;SDS011;66564;42.482;25.548;2023-03-04T09:18:16;20.90;;;12.05;;
77466;SDS011;66564;42.482;25.548;2023-03-04T09:20:43;21.25;;;11.73;;
77466;SDS011;66564;42.482;25.548;2023-03-04T09:23:09;18.45;;;11.38;;
77466;SDS011;66564;42.482;25.548;2023-03-04T09:25:35;22.50;;;11.77;;
77466;SDS011;66564;42.482;25.548;2023-03-04T09:28:02;20.52;;;10.65;;
77466;SDS011;66564;42.482;25.548;2023-03-04T09:30:28;21.27;;;11.65;;
77466;SDS011;66564;42.482;25.548;2023-03-04T09:32:54;19.52;;;10.25;;
77466;SDS011;66564;42.482;25.548;2023-03-04T09:35:19;22.92;;;11.05;;
77466;SDS011;66564;42.482;25.548;2023-03-04T09:37:45;21.38;;;10.95;;
77466;SDS011;66564;42.482;25.548;2023-03-04T09:40:15;19.35;;;10.23;;
77466;SDS011;66564;42.482;25.548;2023-03-04T09:42:45;19.65;;;10.32;;
77466;SDS011;66564;42.482;25.548;2023-03-04T09:45:16;19.80;;;10.85;;
77466;SDS011;66564;42.482;25.548;2023-03-04T09:47:44;22.98;;;11.57;;
77466;SDS011;66564;42.482;25.548;2023-03-04T09:50:11;18.27;;;9.88;;
77466;SDS011;66564;42.482;25.548;2023-03-04T10:00:37;22.48;;;9.43;;
77466;SDS011;66564;42.482;25.548;2023-03-04T10:05:36;17.13;;;8.82;;
77466;SDS011;66564;42.482;25.548;2023-03-04T10:10:49;18.98;;;10.60;;
77466;SDS011;66564;42.482;25.548;2023-03-04T10:13:21;18.58;;;9.50;;
77466;SDS011;66564;42.482;25.548;2023-03-04T10:15:56;17.75;;;8.80;;
77466;SDS011;66564;42.482;25.548;2023-03-04T10:18:38;18.70;;;8.95;;
77466;SDS011;66564;42.482;25.548;2023-03-04T10:24:13;17.65;;;8.73;;
77466;SDS011;66564;42.482;25.548;2023-03-04T10:26:43;11.75;;;7.68;;
77466;SDS011;66564;42.482;25.548;2023-03-04T10:29:18;17.20;;;8.73;;
77466;SDS011;66564;42.482;25.548;2023-03-04T10:31:46;15.45;;;7.72;;
77466;SDS011;66564;42.482;25.548;2023-03-04T10:34:14;19.02;;;7.97;;
77466;SDS011;66564;42.482;25.548;2023-03-04T10:41:52;15.95;;;7.63;;
77466;SDS011;66564;42.482;25.548;2023-03-04T10:44:28;15.02;;;7.97;;
77466;SDS011;66564;42.482;25.548;2023-03-04T10:46:55;13.15;;;8.15;;
77466;SDS011;66564;42.482;25.548;2023-03-04T10:49:22;14.93;;;8.27;;
77466;SDS011;66564;42.482;25.548;2023-03-04T10:51:54;13.25;;;7.72;;
77466;SDS011;66564;42.482;25.548;2023-03-04T10:54:35;18.30;;;8.88;;
77466;SDS011;66564;42.482;25.548;2023-03-04T11:02:22;14.55;;;8.73;;
77466;SDS011;66564;42.482;25.548;2023-03-04T11:05:05;17.27;;;8.35;;
77466;SDS011;66564;42.482;25.548;2023-03-04T11:07:41;20.77;;;8.32;;
77466;SDS011;66564;42.482;25.548;2023-03-04T11:11:27;14.30;;;7.35;;
77466;SDS011;66564;42.482;25.548;2023-03-04T11:14:25;15.05;;;7.95;;
77466;SDS011;66564;42.482;25.548;2023-03-04T11:17:01;14.63;;;9.38;;
77466;SDS011;66564;42.482;25.548;2023-03-04T11:19:39;15.55;;;9.18;;
77466;SDS011;66564;42.482;25.548;2023-03-04T11:22:09;17.30;;;8.82;;
77466;SDS011;66564;42.482;25.548;2023-03-04T11:24:41;17.38;;;9.45;;
77466;SDS011;66564;42.482;25.548;2023-03-04T11:27:17;14.63;;;8.38;;
77466;SDS011;66564;42.482;25.548;2023-03-04T11:29:53;15.85;;;8.93;;
77466;SDS011;66564;42.482;25.548;2023-03-04T11:36:34;16.13;;;9.40;;
77466;SDS011;66564;42.482;25.548;2023-03-04T11:42:55;12.40;;;8.05;;
77466;SDS011;66564;42.482;25.548;2023-03-04T11:50:11;16.55;;;8.02;;
77466;SDS011;66564;42.482;25.548;2023-03-04T12:15:25;12.73;;;6.95;;
77466;SDS011;66564;42.482;25.548;2023-03-04T12:24:26;18.75;;;8.55;;
77466;SDS011;66564;42.482;25.548;2023-03-04T12:27:47;16.08;;;8.57;;
77466;SDS011;66564;42.482;25.548;2023-03-04T12:43:50;20.67;;;9.82;;
77466;SDS011;66564;42.482;25.548;2023-03-04T12:46:30;16.48;;;9.95;;
77466;SDS011;66564;42.482;25.548;2023-03-04T12:54:44;18.48;;;9.40;;
77466;SDS011;66564;42.482;25.548;2023-03-04T12:59:48;18.60;;;9.88;;
77466;SDS011;66564;42.482;25.548;2023-03-04T13:05:45;17.35;;;9.57;;
77466;SDS011;66564;42.482;25.548;2023-03-04T13:23:39;17.88;;;9.95;;
77466;SDS011;66564;42.482;25.548;2023-03-04T13:25:47;17.65;;;9.68;;
77466;SDS011;66564;42.482;25.548;2023-03-04T13:28:34;13.98;;;8.80;;
77466;SDS011;66564;42.482;25.548;2023-03-04T13:39:42;17.88;;;9.02;;
77466;SDS011;66564;42.482;25.548;2023-03-04T13:41:46;16.80;;;9.75;;
77466;SDS011;66564;42.482;25.548;2023-03-04T13:47:05;15.07;;;7.60;;
77466;SDS011;66564;42.482;25.548;2023-03-04T13:50:31;20.05;;;9.75;;
77466;SDS011;66564;42.482;25.548;2023-03-04T13:53:18;14.45;;;8.07;;
77466;SDS011;66564;42.482;25.548;2023-03-04T13:58:35;16.58;;;8.85;;
77466;SDS011;66564;42.482;25.548;2023-03-04T14:01:01;15.35;;;9.25;;
77466;SDS011;66564;42.482;25.548;2023-03-04T14:03:28;17.77;;;7.95;;
77466;SDS011;66564;42.482;25.548;2023-03-04T14:08:57;18.42;;;9.32;;
77466;SDS011;66564;42.482;25.548;2023-03-04T14:11:32;12.13;;;6.75;;
77466;SDS011;66564;42.482;25.548;2023-03-04T14:14:06;13.93;;;7.80;;
77466;SDS011;66564;42.482;25.548;2023-03-04T14:16:55;11.18;;;6.47;;
77466;SDS011;66564;42.482;25.548;2023-03-04T14:21:58;10.73;;;6.38;;
77466;SDS011;66564;42.482;25.548;2023-03-04T14:24:24;12.18;;;7.00;;
77466;SDS011;66564;42.482;25.548;2023-03-04T14:27:02;16.83;;;7.93;;
77466;SDS011;66564;42.482;25.548;2023-03-04T14:29:36;14.55;;;8.93;;
77466;SDS011;66564;42.482;25.548;2023-03-04T14:32:01;12.20;;;6.68;;
77466;SDS011;66564;42.482;25.548;2023-03-04T14:34:33;11.38;;;7.60;;
77466;SDS011;66564;42.482;25.548;2023-03-04T14:37:14;13.70;;;8.98;;
77466;SDS011;66564;42.482;25.548;2023-03-04T14:39:49;15.43;;;8.75;;
77466;SDS011;66564;42.482;25.548;2023-03-04T14:42:17;14.75;;;9.50;;
77466;SDS011;66564;42.482;25.548;2023-03-04T14:44:50;16.48;;;10.25;;
77466;SDS011;66564;42.482;25.548;2023-03-04T14:47:42;17.50;;;9.80;;
77466;SDS011;66564;42.482;25.548;2023-03-04T14:50:18;16.63;;;10.13;;
77466;SDS011;66564;42.482;25.548;2023-03-04T14:52:46;19.02;;;10.00;;
77466;SDS011;66564;42.482;25.548;2023-03-04T14:55:20;19.83;;;11.32;;
77466;SDS011;66564;42.482;25.548;2023-03-04T14:57:49;20.10;;;10.32;;
77466;SDS011;66564;42.482;25.548;2023-03-04T15:00:26;19.60;;;10.73;;
77466;SDS011;66564;42.482;25.548;2023-03-04T15:02:58;22.15;;;11.30;;
77466;SDS011;66564;42.482;25.548;2023-03-04T15:05:32;20.73;;;10.52;;
77466;SDS011;66564;42.482;25.548;2023-03-04T15:17:35;24.60;;;12.25;;
77466;SDS011;66564;42.482;25.548;2023-03-04T15:21:03;22.23;;;12.82;;
77466;SDS011;66564;42.482;25.548;2023-03-04T15:24:33;21.90;;;12.10;;
77466;SDS011;66564;42.482;25.548;2023-03-04T15:27:58;20.33;;;12.40;;
77466;SDS011;66564;42.482;25.548;2023-03-04T15:31:23;23.40;;;12.10;;
77466;SDS011;66564;42.482;25.548;2023-03-04T15:34:50;23.70;;;12.15;;
77466;SDS011;66564;42.482;25.548;2023-03-04T15:38:18;20.90;;;12.20;;
77466;SDS011;66564;42.482;25.548;2023-03-04T15:40:45;21.30;;;12.55;;
77466;SDS011;66564;42.482;25.548;2023-03-04T15:43:14;19.23;;;11.82;;
77466;SDS011;66564;42.482;25.548;2023-03-04T15:45:41;19.73;;;11.15;;
77466;SDS011;66564;42.482;25.548;2023-03-04T15:48:09;22.63;;;11.65;;
77466;SDS011;66564;42.482;25.548;2023-03-04T15:50:37;22.52;;;11.75;;
77466;SDS011;66564;42.482;25.548;2023-03-04T15:53:11;18.58;;;10.60;;
77466;SDS011;66564;42.482;25.548;2023-03-04T15:55:39;21.30;;;12.82;;
77466;SDS011;66564;42.482;25.548;2023-03-04T15:58:08;21.63;;;11.73;;
77466;SDS011;66564;42.482;25.548;2023-03-04T16:00:35;22.83;;;12.20;;
77466;SDS011;66564;42.482;25.548;2023-03-04T16:03:01;21.80;;;12.48;;
77466;SDS011;66564;42.482;25.548;2023-03-04T16:05:26;21.85;;;11.90;;
77466;SDS011;66564;42.482;25.548;2023-03-04T16:07:53;25.25;;;12.57;;
77466;SDS011;66564;42.482;25.548;2023-03-04T16:12:47;20.60;;;11.52;;
77466;SDS011;66564;42.482;25.548;2023-03-04T16:15:25;18.20;;;11.82;;
77466;SDS011;66564;42.482;25.548;2023-03-04T16:17:53;19.40;;;11.43;;
77466;SDS011;66564;42.482;25.548;2023-03-04T16:20:23;21.33;;;11.30;;
77466;SDS011;66564;42.482;25.548;2023-03-04T16:22:53;22.70;;;10.65;;
77466;SDS011;66564;42.482;25.548;2023-03-04T16:25:21;17.95;;;9.45;;
77466;SDS011;66564;42.482;25.548;2023-03-04T16:27:50;15.63;;;9.60;;
77466;SDS011;66564;42.482;25.548;2023-03-04T16:30:21;20.10;;;10.30;;
77466;SDS011;66564;42.482;25.548;2023-03-04T16:32:49;18.45;;;10.10;;
77466;SDS011;66564;42.482;25.548;2023-03-04T16:35:15;19.38;;;9.27;;
77466;SDS011;66564;42.482;25.548;2023-03-04T16:40:42;32.78;;;18.30;;
77466;SDS011;66564;42.482;25.548;2023-03-04T16:43:08;41.35;;;22.27;;
77466;SDS011;66564;42.482;25.548;2023-03-04T16:45:36;50.72;;;25.70;;
77466;SDS011;66564;42.482;25.548;2023-03-04T16:48:02;50.10;;;26.25;;
77466;SDS011;66564;42.482;25.548;2023-03-04T16:50:27;41.38;;;23.33;;
77466;SDS011;66564;42.482;25.548;2023-03-04T16:52:54;41.95;;;22.42;;
77466;SDS011;66564;42.482;25.548;2023-03-04T16:55:21;48.47;;;21.27;;
77466;SDS011;66564;42.482;25.548;2023-03-04T16:57:51;37.63;;;20.50;;
77466;SDS011;66564;42.482;25.548;2023-03-04T17:00:17;28.55;;;16.20;;
77466;SDS011;66564;42.482;25.548;2023-03-04T17:02:48;30.50;;;13.25;;
77466;SDS011;66564;42.482;25.548;2023-03-04T17:05:21;21.90;;;12.77;;
77466;SDS011;66564;42.482;25.548;2023-03-04T17:07:52;21.65;;;11.05;;
77466;SDS011;66564;42.482;25.548;2023-03-04T17:10:17;21.02;;;10.82;;
77466;SDS011;66564;42.482;25.548;2023-03-04T17:12:48;21.13;;;10.25;;
77466;SDS011;66564;42.482;25.548;2023-03-04T17:15:15;16.73;;;9.60;;
77466;SDS011;66564;42.482;25.548;2023-03-04T17:17:41;20.25;;;10.15;;
77466;SDS011;66564;42.482;25.548;2023-03-04T17:20:12;17.70;;;10.80;;
77466;SDS011;66564;42.482;25.548;2023-03-04T17:22:41;19.75;;;9.55;;
77466;SDS011;66564;42.482;25.548;2023-03-04T17:25:06;17.23;;;10.05;;
77466;SDS011;66564;42.482;25.548;2023-03-04T17:27:32;20.70;;;9.98;;